sensor_id;sensor_type;location;lat;lon;timestamp;temperature;humidity
63960;DHT22;50136;51.374;0.096;2024-02-26T00:01:44;6.30;99.90
63960;DHT22;50136;51.374;0.096;2024-02-26T00:11:47;6.30;99.90
63960;DHT22;50136;51.374;0.096;2024-02-26T00:21:49;6.30;99.90
63960;DHT22;50136;51.374;0.096;2024-02-26T00:31:52;6.30;99.90
63960;DHT22;50136;51.374;0.096;2024-02-26T00:41:54;6.30;99.90
63960;DHT22;50136;51.374;0.096;2024-02-26T00:51:58;6.20;99.90
63960;DHT22;50136;51.374;0.096;2024-02-26T01:02:00;6.30;99.90
63960;DHT22;50136;51.374;0.096;2024-02-26T01:12:04;6.30;99.90
63960;DHT22;50136;51.374;0.096;2024-02-26T01:22:06;6.30;99.90
63960;DHT22;50136;51.374;0.096;2024-02-26T01:32:09;6.30;99.90
63960;DHT22;50136;51.374;0.096;2024-02-26T01:42:11;6.30;99.90
63960;DHT22;50136;51.374;0.096;2024-02-26T01:52:15;6.40;99.90
63960;DHT22;50136;51.374;0.096;2024-02-26T02:02:17;6.40;99.90
63960;DHT22;50136;51.374;0.096;2024-02-26T02:12:21;6.40;99.90
63960;DHT22;50136;51.374;0.096;2024-02-26T02:22:25;6.40;99.90
63960;DHT22;50136;51.374;0.096;2024-02-26T02:32:28;6.50;99.90
63960;DHT22;50136;51.374;0.096;2024-02-26T02:42:32;6.60;99.90
63960;DHT22;50136;51.374;0.096;2024-02-26T02:52:34;6.60;99.90
63960;DHT22;50136;51.374;0.096;2024-02-26T03:02:37;6.60;99.90
63960;DHT22;50136;51.374;0.096;2024-02-26T03:12:39;6.60;99.90
63960;DHT22;50136;51.374;0.096;2024-02-26T03:22:43;6.60;99.90
63960;DHT22;50136;51.374;0.096;2024-02-26T03:32:45;6.50;99.90
63960;DHT22;50136;51.374;0.096;2024-02-26T03:42:48;6.60;99.90
63960;DHT22;50136;51.374;0.096;2024-02-26T03:52:50;6.50;99.90
63960;DHT22;50136;51.374;0.096;2024-02-26T04:02:54;6.60;99.90
63960;DHT22;50136;51.374;0.096;2024-02-26T04:12:56;6.50;99.90
63960;DHT22;50136;51.374;0.096;2024-02-26T04:22:59;6.50;99.90
63960;DHT22;50136;51.374;0.096;2024-02-26T04:33:01;6.50;99.90
63960;DHT22;50136;51.374;0.096;2024-02-26T04:43:05;6.50;99.90
63960;DHT22;50136;51.374;0.096;2024-02-26T04:53:07;6.50;99.90
63960;DHT22;50136;51.374;0.096;2024-02-26T05:03:10;6.40;99.90
63960;DHT22;50136;51.374;0.096;2024-02-26T05:13:12;6.40;99.90
63960;DHT22;50136;51.374;0.096;2024-02-26T05:23:18;6.40;99.90
63960;DHT22;50136;51.374;0.096;2024-02-26T05:33:23;6.30;99.90
63960;DHT22;50136;51.374;0.096;2024-02-26T05:43:27;6.30;99.90
63960;DHT22;50136;51.374;0.096;2024-02-26T05:53:29;6.30;99.90
63960;DHT22;50136;51.374;0.096;2024-02-26T06:03:32;6.30;99.90
63960;DHT22;50136;51.374;0.096;2024-02-26T06:13:34;6.20;99.90
63960;DHT22;50136;51.374;0.096;2024-02-26T06:23:38;6.20;99.90
63960;DHT22;50136;51.374;0.096;2024-02-26T06:33:40;6.10;99.90
63960;DHT22;50136;51.374;0.096;2024-02-26T06:43:43;6.00;99.90
63960;DHT22;50136;51.374;0.096;2024-02-26T06:53:45;6.00;99.90
63960;DHT22;50136;51.374;0.096;2024-02-26T07:03:49;5.90;99.90
63960;DHT22;50136;51.374;0.096;2024-02-26T07:13:51;5.90;99.90
63960;DHT22;50136;51.374;0.096;2024-02-26T07:23:54;5.80;99.90
63960;DHT22;50136;51.374;0.096;2024-02-26T07:33:56;5.80;99.90
63960;DHT22;50136;51.374;0.096;2024-02-26T07:44:00;5.80;99.90
63960;DHT22;50136;51.374;0.096;2024-02-26T07:54:02;5.80;99.90
63960;DHT22;50136;51.374;0.096;2024-02-26T08:04:06;5.80;99.90
63960;DHT22;50136;51.374;0.096;2024-02-26T08:14:08;5.80;99.90
63960;DHT22;50136;51.374;0.096;2024-02-26T08:24:11;5.90;99.90
63960;DHT22;50136;51.374;0.096;2024-02-26T08:34:13;5.90;99.90
63960;DHT22;50136;51.374;0.096;2024-02-26T08:44:17;6.00;99.90
63960;DHT22;50136;51.374;0.096;2024-02-26T08:54:19;6.10;99.90
63960;DHT22;50136;51.374;0.096;2024-02-26T09:04:23;6.10;99.90
63960;DHT22;50136;51.374;0.096;2024-02-26T09:14:25;6.20;99.90
63960;DHT22;50136;51.374;0.096;2024-02-26T09:24:30;6.20;99.90
63960;DHT22;50136;51.374;0.096;2024-02-26T09:34:33;6.20;99.90
63960;DHT22;50136;51.374;0.096;2024-02-26T09:44:36;6.20;99.90
63960;DHT22;50136;51.374;0.096;2024-02-26T09:54:42;6.30;99.90
63960;DHT22;50136;51.374;0.096;2024-02-26T10:04:50;6.40;99.90
63960;DHT22;50136;51.374;0.096;2024-02-26T10:14:53;6.50;99.90
63960;DHT22;50136;51.374;0.096;2024-02-26T10:24:57;6.60;99.90
63960;DHT22;50136;51.374;0.096;2024-02-26T10:34:59;6.70;99.90
63960;DHT22;50136;51.374;0.096;2024-02-26T10:45:03;6.80;99.90
63960;DHT22;50136;51.374;0.096;2024-02-26T10:55:06;6.90;99.90
63960;DHT22;50136;51.374;0.096;2024-02-26T11:05:11;6.60;99.90
63960;DHT22;50136;51.374;0.096;2024-02-26T11:15:14;6.80;99.90
63960;DHT22;50136;51.374;0.096;2024-02-26T11:25:19;6.80;99.90
63960;DHT22;50136;51.374;0.096;2024-02-26T11:35:21;6.80;99.90
63960;DHT22;50136;51.374;0.096;2024-02-26T11:45:55;7.10;99.90
63960;DHT22;50136;51.374;0.096;2024-02-26T11:56:22;7.20;99.90
63960;DHT22;50136;51.374;0.096;2024-02-26T12:06:45;7.10;99.90
63960;DHT22;50136;51.374;0.096;2024-02-26T12:16:55;7.10;99.90
63960;DHT22;50136;51.374;0.096;2024-02-26T12:26:58;7.10;99.90
63960;DHT22;50136;51.374;0.096;2024-02-26T12:37:14;7.20;99.90
63960;DHT22;50136;51.374;0.096;2024-02-26T12:47:18;7.30;99.90
63960;DHT22;50136;51.374;0.096;2024-02-26T12:57:20;7.40;99.90
63960;DHT22;50136;51.374;0.096;2024-02-26T13:07:23;7.10;99.90
63960;DHT22;50136;51.374;0.096;2024-02-26T13:17:26;7.10;99.90
63960;DHT22;50136;51.374;0.096;2024-02-26T13:27:29;7.40;99.90
63960;DHT22;50136;51.374;0.096;2024-02-26T13:37:32;7.50;99.90
63960;DHT22;50136;51.374;0.096;2024-02-26T13:47:35;7.60;99.90
63960;DHT22;50136;51.374;0.096;2024-02-26T13:57:37;8.00;99.90
63960;DHT22;50136;51.374;0.096;2024-02-26T14:07:42;8.20;99.90
63960;DHT22;50136;51.374;0.096;2024-02-26T14:17:44;8.20;99.90
63960;DHT22;50136;51.374;0.096;2024-02-26T14:27:48;8.30;99.90
63960;DHT22;50136;51.374;0.096;2024-02-26T14:37:50;8.30;99.90
63960;DHT22;50136;51.374;0.096;2024-02-26T14:47:54;8.30;99.90
63960;DHT22;50136;51.374;0.096;2024-02-26T14:57:56;8.20;99.90
63960;DHT22;50136;51.374;0.096;2024-02-26T15:08:00;8.30;99.90
63960;DHT22;50136;51.374;0.096;2024-02-26T15:18:04;8.30;99.90
63960;DHT22;50136;51.374;0.096;2024-02-26T15:28:08;8.40;99.90
63960;DHT22;50136;51.374;0.096;2024-02-26T15:38:11;8.50;99.90
63960;DHT22;50136;51.374;0.096;2024-02-26T15:48:19;8.50;99.90
63960;DHT22;50136;51.374;0.096;2024-02-26T15:58:23;8.30;99.90
63960;DHT22;50136;51.374;0.096;2024-02-26T16:08:32;8.00;99.90
63960;DHT22;50136;51.374;0.096;2024-02-26T16:29:29;7.90;99.90
63960;DHT22;50136;51.374;0.096;2024-02-26T16:39:36;7.80;99.90
63960;DHT22;50136;51.374;0.096;2024-02-26T16:49:42;7.60;99.90
63960;DHT22;50136;51.374;0.096;2024-02-26T16:59:44;7.60;99.90
63960;DHT22;50136;51.374;0.096;2024-02-26T17:09:47;7.60;99.90
63960;DHT22;50136;51.374;0.096;2024-02-26T17:19:49;7.60;99.90
63960;DHT22;50136;51.374;0.096;2024-02-26T17:29:53;7.50;99.90
63960;DHT22;50136;51.374;0.096;2024-02-26T17:39:55;7.40;99.90
63960;DHT22;50136;51.374;0.096;2024-02-26T17:49:59;7.30;99.90
63960;DHT22;50136;51.374;0.096;2024-02-26T18:00:01;7.10;99.90
63960;DHT22;50136;51.374;0.096;2024-02-26T18:10:05;6.90;99.90
63960;DHT22;50136;51.374;0.096;2024-02-26T18:20:08;6.80;99.90
63960;DHT22;50136;51.374;0.096;2024-02-26T18:30:12;6.80;99.90
63960;DHT22;50136;51.374;0.096;2024-02-26T18:40:14;6.70;99.90
63960;DHT22;50136;51.374;0.096;2024-02-26T18:50:19;6.70;99.90
63960;DHT22;50136;51.374;0.096;2024-02-26T19:00:21;6.70;99.90
63960;DHT22;50136;51.374;0.096;2024-02-26T19:10:25;6.60;99.90
63960;DHT22;50136;51.374;0.096;2024-02-26T19:20:27;6.60;99.90
63960;DHT22;50136;51.374;0.096;2024-02-26T19:30:30;6.60;99.90
63960;DHT22;50136;51.374;0.096;2024-02-26T19:40:32;6.70;99.90
63960;DHT22;50136;51.374;0.096;2024-02-26T19:50:36;6.60;99.90
63960;DHT22;50136;51.374;0.096;2024-02-26T20:00:38;6.50;99.90
63960;DHT22;50136;51.374;0.096;2024-02-26T20:10:42;6.30;99.90
63960;DHT22;50136;51.374;0.096;2024-02-26T20:20:44;6.00;99.90
63960;DHT22;50136;51.374;0.096;2024-02-26T20:30:47;6.00;99.90
63960;DHT22;50136;51.374;0.096;2024-02-26T20:40:49;5.90;99.90
63960;DHT22;50136;51.374;0.096;2024-02-26T20:50:53;5.70;99.90
63960;DHT22;50136;51.374;0.096;2024-02-26T21:00:55;5.50;99.90
63960;DHT22;50136;51.374;0.096;2024-02-26T21:11:02;5.40;99.90
63960;DHT22;50136;51.374;0.096;2024-02-26T21:21:14;5.20;99.90
63960;DHT22;50136;51.374;0.096;2024-02-26T21:31:18;5.10;99.90
63960;DHT22;50136;51.374;0.096;2024-02-26T21:41:20;5.10;99.90
63960;DHT22;50136;51.374;0.096;2024-02-26T21:51:25;5.00;99.90
63960;DHT22;50136;51.374;0.096;2024-02-26T22:01:27;4.90;99.90
63960;DHT22;50136;51.374;0.096;2024-02-26T22:11:31;4.80;99.90
63960;DHT22;50136;51.374;0.096;2024-02-26T22:21:34;4.80;99.90
63960;DHT22;50136;51.374;0.096;2024-02-26T22:31:38;4.70;99.90
63960;DHT22;50136;51.374;0.096;2024-02-26T22:41:40;4.70;99.90
63960;DHT22;50136;51.374;0.096;2024-02-26T22:51:43;4.60;99.90
63960;DHT22;50136;51.374;0.096;2024-02-26T23:01:46;4.60;99.90
63960;DHT22;50136;51.374;0.096;2024-02-26T23:11:49;4.50;99.90
63960;DHT22;50136;51.374;0.096;2024-02-26T23:21:51;4.40;99.90
63960;DHT22;50136;51.374;0.096;2024-02-26T23:31:55;4.50;99.90
63960;DHT22;50136;51.374;0.096;2024-02-26T23:41:57;4.50;99.90
63960;DHT22;50136;51.374;0.096;2024-02-26T23:52:01;4.70;99.90
